Terminal Aerodrome Forecast
Issued by NWS Brownsville, TX

Home | Current Version | Previous Version | Text Only | Print | Product List | Glossary On
Versions: 1 2 3 4 5 6 7 8 9 10 11 12 13 14 15 16 17
000
FTUS44 KBRO 271122
TAFBRO
TAF
KBRO 271122Z 2712/2812 18015G20KT 5SM BR OVC007
      TEMPO 2712/2713 32018G25KT BKN010
     FM271300 32016G22KT 5SM HZ BKN030
     FM271900 02012G18KT 6SM HZ SCT035
     FM280200 35006KT P6SM BKN250=

USA.gov is the U.S. government's official web portal to all federal, state and local government web resources and services.